Time;durP1;ratioP1;P1;durP2;ratioP2;P2;SDS_P1;SDS_P2;PMS_P1;PMS_P2;Temp;Humidity;BMP_temperature;BMP_pressure;BME280_temperature;BME280_humidity;BME280_pressure;Samples;Min_cycle;Max_cycle;Signal;HPM_P1;HPM_P2
2022/03/06 00:01:19;;;;;;;8.05;4.40;;;;;;;2.66;47.30;100221.75;4333849;33;33970;-72
2022/03/06 00:03:47;;;;;;;8.65;4.47;;;;;;;3.07;46.79;100222.06;4334104;33;34086;-67
2022/03/06 00:06:15;;;;;;;7.20;4.03;;;;;;;2.77;48.23;100218.59;4333967;33;34248;-68
2022/03/06 00:08:42;;;;;;;8.30;4.70;;;;;;;2.53;48.97;100224.22;4333735;33;33705;-71
2022/03/06 00:11:10;;;;;;;6.97;4.32;;;;;;;2.46;48.34;100230.34;4333826;33;34493;-72
2022/03/06 00:13:37;;;;;;;9.57;4.57;;;;;;;2.59;47.76;100234.19;4333835;33;34080;-68
2022/03/06 00:16:05;;;;;;;7.75;4.37;;;;;;;2.63;47.83;100233.63;4333733;33;34898;-67
2022/03/06 00:18:35;;;;;;;7.85;4.45;;;;;;;2.18;48.58;100237.28;4333894;33;33733;-68
2022/03/06 00:21:04;;;;;;;8.07;4.45;;;;;;;2.25;48.98;100232.91;4333644;33;34065;-68
2022/03/06 00:23:34;;;;;;;7.05;4.07;;;;;;;2.35;48.73;100241.47;4320706;33;34000;-71
2022/03/06 00:26:02;;;;;;;7.70;4.18;;;;;;;2.03;49.77;100237.25;4334026;33;34465;-67
2022/03/06 00:28:29;;;;;;;7.53;4.62;;;;;;;2.08;49.15;100236.75;4333444;33;34828;-70
2022/03/06 00:30:57;;;;;;;9.57;5.40;;;;;;;2.02;49.43;100236.44;4332536;33;33432;-67
2022/03/06 00:33:24;;;;;;;0.40;0.40;;;;;;;2.09;49.36;100239.22;4333793;33;34740;-70
2022/03/06 00:35:51;;;;;;;7.47;4.12;;;;;;;1.26;50.44;100227.50;4333526;33;33970;-67
2022/03/06 00:38:19;;;;;;;8.00;4.37;;;;;;;1.33;51.27;100227.63;4333646;33;33966;-69
2022/03/06 00:40:47;;;;;;;7.75;4.72;;;;;;;1.83;50.56;100226.25;4333948;33;33436;-67
2022/03/06 00:43:15;;;;;;;9.13;4.87;;;;;;;1.29;50.77;100228.97;4333505;33;34090;-71
2022/03/06 00:45:44;;;;;;;8.35;4.45;;;;;;;1.70;50.28;100234.88;4333644;33;35105;-70
2022/03/06 00:48:12;;;;;;;8.35;4.90;;;;;;;1.90;50.07;100234.38;4333627;33;34778;-71
2022/03/06 00:50:40;;;;;;;9.80;4.85;;;;;;;1.68;50.50;100228.03;4320165;33;33584;-67
2022/03/06 00:53:08;;;;;;;9.02;5.12;;;;;;;1.79;50.44;100225.78;4333642;33;33983;-67
2022/03/06 00:55:36;;;;;;;0.57;0.57;;;;;;;1.55;50.44;100236.66;4333517;33;35250;-67
2022/03/06 00:58:06;;;;;;;7.40;4.43;;;;;;;1.96;49.49;100236.34;4320009;33;34726;-71
2022/03/06 01:00:46;;;;;;;10.20;4.93;;;;;;;1.52;50.85;100227.16;4333393;33;34657;-67
2022/03/06 01:03:16;;;;;;;7.62;4.40;;;;;;;1.27;51.36;100231.81;4333239;33;34819;-70
2022/03/06 01:05:45;;;;;;;8.90;5.10;;;;;;;1.23;51.74;100225.16;4320246;33;34055;-68
2022/03/06 01:08:13;;;;;;;7.85;4.68;;;;;;;1.41;51.37;100230.25;4333303;33;34697;-72
2022/03/06 01:10:44;;;;;;;12.68;3.47;;;;;;;1.38;52.42;100226.09;4333488;33;34201;-71
2022/03/06 01:13:12;;;;;;;8.70;4.55;;;;;;;1.57;51.03;100224.75;4333514;33;33842;-71
2022/03/06 01:15:40;;;;;;;7.45;4.95;;;;;;;1.51;50.96;100219.28;4333460;33;34408;-71
2022/03/06 01:18:07;;;;;;;0.60;0.60;;;;;;;1.37;51.70;100221.72;4333323;33;33779;-68
2022/03/06 01:20:37;;;;;;;8.32;5.20;;;;;;;1.55;50.84;100221.44;4333331;33;33272;-69
2022/03/06 01:23:06;;;;;;;1.55;1.27;;;;;;;1.28;51.49;100211.28;4333264;33;34015;-68
2022/03/06 01:25:33;;;;;;;9.13;4.53;;;;;;;1.32;51.23;100210.75;4333426;33;33837;-71
2022/03/06 01:28:03;;;;;;;7.65;4.22;;;;;;;1.22;51.65;100205.63;4333327;33;34076;-70
2022/03/06 01:30:31;;;;;;;10.10;5.53;;;;;;;0.89;52.76;100210.31;4319785;33;33459;-68
2022/03/06 01:33:00;;;;;;;11.27;5.45;;;;;;;0.81;52.80;100207.69;4333221;33;34804;-67
2022/03/06 01:35:28;;;;;;;8.00;5.00;;;;;;;1.26;51.74;100198.09;4333252;33;34003;-66
2022/03/06 01:37:55;;;;;;;14.87;6.57;;;;;;;0.99;52.35;100197.59;4319829;33;33940;-67
2022/03/06 01:40:23;;;;;;;14.18;6.85;;;;;;;0.76;53.29;100194.84;4333173;33;34423;-72
2022/03/06 01:42:51;;;;;;;1.40;1.20;;;;;;;1.17;52.07;100189.28;4319480;33;34055;-72
2022/03/06 01:45:21;;;;;;;1.05;1.05;;;;;;;1.10;52.57;100196.34;4332940;33;35041;-70
2022/03/06 01:47:51;;;;;;;9.13;5.00;;;;;;;1.64;53.09;100184.75;4332971;33;33748;-66
2022/03/06 01:50:25;;;;;;;0.75;0.50;;;;;;;1.72;51.39;100184.69;4332972;33;33775;-67
2022/03/06 01:52:54;;;;;;;9.20;5.12;;;;;;;1.63;51.60;100183.94;4333062;33;33794;-67
2022/03/06 01:55:24;;;;;;;7.65;4.97;;;;;;;1.52;51.67;100187.03;4332876;33;34880;-68
2022/03/06 01:57:56;;;;;;;1.98;1.40;;;;;;;0.95;53.02;100177.56;4319709;33;34479;-67
2022/03/06 02:00:26;;;;;;;7.18;4.87;;;;;;;1.03;52.83;100180.16;4319710;33;33552;-71
2022/03/06 02:02:54;;;;;;;7.45;4.40;;;;;;;0.56;53.84;100177.56;4319426;33;34937;-71
2022/03/06 02:05:22;;;;;;;2.60;1.95;;;;;;;0.70;53.76;100178.69;4332855;33;34236;-71
2022/03/06 02:07:50;;;;;;;9.95;4.65;;;;;;;1.18;52.50;100177.56;4332737;33;34642;-67
2022/03/06 02:10:18;;;;;;;2.12;1.90;;;;;;;0.53;54.39;100178.75;4332702;33;33636;-68
2022/03/06 02:12:46;;;;;;;7.47;4.65;;;;;;;1.26;52.95;100181.22;4332367;33;34036;-68
2022/03/06 02:15:15;;;;;;;9.63;5.00;;;;;;;1.23;52.41;100172.56;4332753;33;35042;-71
2022/03/06 02:17:44;;;;;;;8.40;4.85;;;;;;;0.82;53.43;100175.47;4332729;33;34014;-71
2022/03/06 02:20:17;;;;;;;7.75;5.00;;;;;;;1.26;52.96;100174.03;4319574;33;33259;-67
2022/03/06 02:22:47;;;;;;;0.40;0.40;;;;;;;0.71;53.73;100172.34;4332607;33;33901;-71
2022/03/06 02:25:17;;;;;;;1.50;1.33;;;;;;;1.24;52.64;100173.38;4332364;33;34078;-68
2022/03/06 02:27:46;;;;;;;9.82;5.45;;;;;;;0.87;53.67;100171.44;4332645;33;34588;-72
2022/03/06 02:30:23;;;;;;;8.70;5.45;;;;;;;0.86;53.83;100165.25;4332426;33;34316;-71
2022/03/06 02:32:52;;;;;;;2.15;1.75;;;;;;;1.00;53.33;100169.03;4332379;33;33478;-72
2022/03/06 02:35:20;;;;;;;9.80;5.35;;;;;;;0.81;53.59;100179.13;4332400;33;34292;-67
2022/03/06 02:37:47;;;;;;;5.80;3.50;;;;;;;0.86;53.50;100180.44;4318958;33;33902;-69
2022/03/06 02:40:16;;;;;;;10.02;5.47;;;;;;;1.12;53.65;100183.63;4332399;33;34411;-67
2022/03/06 02:42:45;;;;;;;4.82;2.58;;;;;;;0.73;54.32;100178.34;4332308;33;33643;-68
2022/03/06 02:45:17;;;;;;;5.87;2.85;;;;;;;1.24;52.33;100173.38;4318864;33;34399;-68
2022/03/06 02:47:46;;;;;;;9.02;4.65;;;;;;;0.99;53.87;100178.03;4332207;33;34127;-67
2022/03/06 02:50:19;;;;;;;7.20;2.42;;;;;;;0.46;54.99;100167.09;4332131;33;33709;-71
2022/03/06 02:52:46;;;;;;;0.85;0.85;;;;;;;0.73;54.63;100181.00;4331995;33;33951;-68
2022/03/06 02:55:15;;;;;;;11.25;5.30;;;;;;;0.98;53.27;100169.19;4334354;33;34286;-71
2022/03/06 02:57:43;;;;;;;9.90;5.10;;;;;;;0.97;53.48;100169.34;4334373;33;33896;-71
2022/03/06 03:00:13;;;;;;;2.72;1.73;;;;;;;0.36;54.62;100177.16;4321078;33;33415;-71
2022/03/06 03:02:41;;;;;;;9.68;4.60;;;;;;;0.66;54.17;100172.03;4333876;33;34776;-71
2022/03/06 03:05:13;;;;;;;11.05;5.25;;;;;;;0.12;55.11;100168.22;4334428;33;34295;-68
2022/03/06 03:07:42;;;;;;;2.28;1.87;;;;;;;0.03;55.50;100169.22;4334455;33;33980;-72
2022/03/06 03:10:12;;;;;;;8.75;5.32;;;;;;;0.32;55.28;100160.62;4334175;33;33670;-71
2022/03/06 03:12:40;;;;;;;1.42;0.82;;;;;;;0.08;55.33;100169.53;4333895;33;33572;-72
2022/03/06 03:15:09;;;;;;;8.88;5.05;;;;;;;-0.18;56.12;100168.94;4334063;33;34074;-72
2022/03/06 03:17:37;;;;;;;5.47;2.80;;;;;;;0.68;53.86;100172.69;4334186;33;34888;-68
2022/03/06 03:20:06;;;;;;;3.85;2.25;;;;;;;1.06;53.29;100162.13;4334074;33;33327;-72
2022/03/06 03:22:33;;;;;;;0.73;0.73;;;;;;;0.59;54.58;100163.88;4334250;33;34373;-70
2022/03/06 03:25:01;;;;;;;9.18;4.93;;;;;;;0.87;54.18;100166.91;4334337;33;34282;-66
2022/03/06 03:27:28;;;;;;;0.82;0.70;;;;;;;0.50;54.66;100173.78;4333801;33;33870;-72
2022/03/06 03:29:56;;;;;;;1.02;1.02;;;;;;;0.94;53.05;100175.06;4334351;33;33748;-72
2022/03/06 03:32:24;;;;;;;10.02;4.82;;;;;;;0.76;53.78;100180.69;4334072;33;34614;-68
2022/03/06 03:34:51;;;;;;;9.50;4.97;;;;;;;0.27;55.28;100179.00;4333955;33;34286;-71
2022/03/06 03:37:19;;;;;;;0.57;0.52;;;;;;;0.11;55.87;100179.91;4334067;33;33790;-72
2022/03/06 03:39:46;;;;;;;8.45;5.32;;;;;;;0.43;55.15;100177.28;4334164;33;34271;-68
2022/03/06 03:42:13;;;;;;;3.22;1.98;;;;;;;0.43;55.07;100178.12;4333849;33;33885;-72
2022/03/06 03:44:41;;;;;;;2.25;2.05;;;;;;;0.13;55.88;100179.72;4334049;33;35040;-71
2022/03/06 03:47:09;;;;;;;3.67;2.05;;;;;;;0.69;54.18;100180.53;4334109;33;34682;-72
2022/03/06 03:49:36;;;;;;;4.40;2.70;;;;;;;0.37;55.59;100178.84;4333825;33;33668;-72
2022/03/06 03:52:04;;;;;;;9.15;4.80;;;;;;;-0.16;56.01;100189.09;4333862;33;34803;-71
2022/03/06 03:54:31;;;;;;;0.50;0.50;;;;;;;-0.46;57.15;100198.59;4334120;33;34318;-73
2022/03/06 03:56:59;;;;;;;7.75;4.80;;;;;;;0.11;55.71;100189.72;4334057;33;33542;-67
2022/03/06 03:59:26;;;;;;;2.05;1.42;;;;;;;0.06;56.00;100195.56;4333962;33;34430;-68
2022/03/06 04:01:54;;;;;;;1.48;1.08;;;;;;;0.22;55.47;100197.38;4333906;33;34632;-70
2022/03/06 04:04:22;;;;;;;9.82;5.20;;;;;;;-0.03;55.82;100197.41;4333558;33;34999;-68
2022/03/06 04:06:49;;;;;;;9.00;5.60;;;;;;;0.27;54.81;100197.69;4334099;33;34000;-69
2022/03/06 04:09:16;;;;;;;2.55;1.95;;;;;;;0.14;55.52;100194.72;4333989;33;33498;-72
2022/03/06 04:11:44;;;;;;;6.22;4.45;;;;;;;0.42;54.69;100202.34;4333470;33;33984;-72
2022/03/06 04:14:11;;;;;;;0.50;0.50;;;;;;;0.05;55.62;100207.25;4333789;33;34184;-72
2022/03/06 04:16:39;;;;;;;5.28;3.42;;;;;;;-0.17;56.18;100202.59;4333808;33;34070;-68
2022/03/06 04:19:07;;;;;;;6.05;3.08;;;;;;;0.33;54.84;100210.34;4333622;33;34407;-69
2022/03/06 04:21:34;;;;;;;11.88;5.35;;;;;;;-0.16;56.56;100196.28;4333810;33;34857;-73
2022/03/06 04:24:02;;;;;;;8.43;4.78;;;;;;;0.10;55.08;100210.22;4333661;33;34189;-72
2022/03/06 04:26:29;;;;;;;0.73;0.70;;;;;;;-0.60;57.01;100205.44;4333653;33;34765;-68
2022/03/06 04:28:57;;;;;;;1.20;1.10;;;;;;;-0.53;57.23;100202.94;4333741;33;34274;-71
2022/03/06 04:31:24;;;;;;;9.80;5.50;;;;;;;0.15;55.95;100205.25;4333422;33;34742;-73
2022/03/06 04:33:52;;;;;;;1.23;1.12;;;;;;;-0.26;55.93;100205.28;4333606;33;34217;-68
2022/03/06 04:36:19;;;;;;;8.82;5.10;;;;;;;-0.16;55.84;100204.28;4333706;33;34806;-67
2022/03/06 04:38:47;;;;;;;9.60;5.60;;;;;;;-0.58;56.97;100213.25;4333715;33;33290;-72
2022/03/06 04:41:15;;;;;;;0.55;0.55;;;;;;;-0.20;55.86;100203.75;4333510;33;33783;-73
2022/03/06 04:43:43;;;;;;;5.68;3.75;;;;;;;-0.15;57.00;100212.12;4333609;33;35205;-67
2022/03/06 04:46:11;;;;;;;0.95;0.82;;;;;;;-0.25;56.02;100211.44;4333695;33;34664;-72
2022/03/06 04:48:39;;;;;;;0.95;0.95;;;;;;;-0.19;56.36;100209.91;4333552;33;33377;-68
2022/03/06 04:51:06;;;;;;;6.03;3.50;;;;;;;-0.02;55.95;100211.59;4333423;33;34760;-67
2022/03/06 04:53:34;;;;;;;0.75;0.75;;;;;;;-0.10;56.34;100211.59;4333600;33;34195;-69
2022/03/06 04:56:01;;;;;;;1.20;0.70;;;;;;;-0.01;55.03;100207.91;4320448;33;33421;-67
2022/03/06 04:58:30;;;;;;;2.17;1.65;;;;;;;-0.19;55.16;100207.25;4333614;33;34253;-68
2022/03/06 05:00:58;;;;;;;0.70;0.70;;;;;;;-0.05;55.04;100198.59;4333426;33;33927;-68
2022/03/06 05:03:25;;;;;;;0.60;0.60;;;;;;;-0.70;56.70;100204.75;4333246;33;34206;-74
2022/03/06 05:05:53;;;;;;;0.52;0.52;;;;;;;-0.93;57.35;100207.19;4333545;33;33821;-68
2022/03/06 05:08:21;;;;;;;0.50;0.50;;;;;;;-0.28;57.52;100201.94;4333311;33;33654;-68
2022/03/06 05:10:49;;;;;;;9.27;5.57;;;;;;;-0.22;55.73;100211.94;4333290;33;34798;-70
2022/03/06 05:13:16;;;;;;;0.55;0.55;;;;;;;-0.21;55.69;100220.78;4332093;33;35013;-65
2022/03/06 05:15:44;;;;;;;0.80;0.70;;;;;;;-0.36;56.17;100215.28;4320362;33;33687;-72
2022/03/06 05:18:12;;;;;;;1.17;0.70;;;;;;;-0.65;57.37;100216.59;4332970;33;34169;-73
2022/03/06 05:20:39;;;;;;;8.13;4.55;;;;;;;-1.14;58.98;100218.31;4333355;33;33874;-74
2022/03/06 05:23:06;;;;;;;0.50;0.50;;;;;;;-0.89;58.39;100208.53;4319640;33;35088;-68
2022/03/06 05:25:34;;;;;;;1.30;0.80;;;;;;;-0.49;57.15;100220.28;4333490;33;33751;-68
2022/03/06 05:28:02;;;;;;;8.95;5.45;;;;;;;-0.22;56.78;100225.28;4333254;33;34277;-68
2022/03/06 05:30:30;;;;;;;6.45;3.30;;;;;;;-0.39;57.38;100223.59;4332454;33;34125;-68
2022/03/06 05:32:58;;;;;;;13.68;7.28;;;;;;;-0.47;57.33;100227.09;4333032;33;35285;-69
2022/03/06 05:35:25;;;;;;;3.92;1.95;;;;;;;-0.74;57.78;100214.91;4333274;33;33768;-69
2022/03/06 05:37:53;;;;;;;0.55;0.55;;;;;;;-0.91;58.57;100219.34;4333155;33;34281;-68
2022/03/06 05:40:20;;;;;;;0.45;0.43;;;;;;;-0.93;58.86;100218.72;4333216;33;33758;-68
2022/03/06 05:42:48;;;;;;;2.40;1.45;;;;;;;-0.93;59.22;100226.69;4332456;33;35156;-70
2022/03/06 05:45:15;;;;;;;0.62;0.62;;;;;;;-0.69;58.14;100225.06;4332904;33;34677;-72
2022/03/06 05:47:43;;;;;;;13.70;7.07;;;;;;;-0.49;57.83;100223.75;4333080;33;33514;-71
2022/03/06 05:50:11;;;;;;;13.18;6.95;;;;;;;-0.58;57.83;100229.22;4332904;33;34919;-69
2022/03/06 05:52:39;;;;;;;3.60;2.92;;;;;;;-0.09;56.20;100226.59;4323296;33;34206;-69
2022/03/06 05:55:08;;;;;;;0.52;0.52;;;;;;;0.02;55.87;100218.25;4319326;33;34727;-66
2022/03/06 05:57:36;;;;;;;1.55;1.20;;;;;;;0.14;55.86;100222.22;4319454;33;33351;-65
2022/03/06 06:00:08;;;;;;;11.55;6.32;;;;;;;0.07;55.62;100221.25;4321725;33;33528;-68
2022/03/06 06:02:37;;;;;;;0.95;0.95;;;;;;;0.07;55.69;100223.09;4323639;33;34840;-73
2022/03/06 06:05:06;;;;;;;1.05;0.95;;;;;;;0.17;55.78;100221.06;4321284;33;33778;-72
2022/03/06 06:07:33;;;;;;;12.70;7.50;;;;;;;0.56;54.29;100215.81;4319707;33;33949;-70
2022/03/06 06:10:03;;;;;;;0.65;0.60;;;;;;;0.44;54.55;100214.50;4321980;33;33913;-65
2022/03/06 06:12:30;;;;;;;0.60;0.60;;;;;;;0.41;54.61;100212.16;4321944;33;33996;-66
2022/03/06 06:14:57;;;;;;;7.60;4.75;;;;;;;0.33;54.67;100212.19;4323729;33;34353;-70
2022/03/06 06:17:25;;;;;;;6.18;4.03;;;;;;;-0.04;55.89;100211.75;4321459;33;33608;-67
2022/03/06 06:19:52;;;;;;;8.55;4.80;;;;;;;0.45;55.32;100212.66;4316402;33;34831;-70
2022/03/06 06:22:20;;;;;;;7.93;4.47;;;;;;;1.11;53.56;100206.03;4316686;33;34180;-67
2022/03/06 06:24:47;;;;;;;8.77;4.32;;;;;;;1.98;51.43;100203.03;4316066;33;33847;-73
2022/03/06 06:27:15;;;;;;;7.75;4.25;;;;;;;2.78;48.55;100197.97;4315273;33;34309;-68
2022/03/06 06:29:42;;;;;;;9.13;4.55;;;;;;;2.84;47.05;100194.56;4318107;33;34020;-73
2022/03/06 06:32:10;;;;;;;8.27;4.18;;;;;;;3.69;46.03;100209.91;4318828;33;33971;-68
2022/03/06 06:34:37;;;;;;;6.70;4.40;;;;;;;4.58;44.66;100205.81;4318377;33;34486;-71
2022/03/06 06:37:05;;;;;;;7.35;4.50;;;;;;;4.90;41.99;100207.00;4318365;33;34334;-67
2022/03/06 06:39:33;;;;;;;5.78;3.30;;;;;;;6.36;41.05;100208.25;4318576;33;34856;-72
2022/03/06 06:42:03;;;;;;;7.45;3.87;;;;;;;6.89;39.05;100201.88;4317838;33;35069;-69
2022/03/06 06:44:31;;;;;;;5.62;3.42;;;;;;;6.49;37.78;100205.53;4318303;33;34942;-71
2022/03/06 06:46:59;;;;;;;8.20;3.92;;;;;;;6.24;37.93;100212.59;4318135;33;34267;-69
2022/03/06 06:49:27;;;;;;;5.72;3.53;;;;;;;6.74;37.79;100212.94;4318433;33;33495;-68
2022/03/06 06:51:55;;;;;;;7.62;4.22;;;;;;;6.87;37.23;100214.75;4318239;33;34282;-65
2022/03/06 06:54:22;;;;;;;6.22;3.70;;;;;;;6.74;38.65;100211.06;4318455;33;33753;-67
2022/03/06 06:56:50;;;;;;;7.47;3.80;;;;;;;6.22;38.10;100206.59;4317597;33;34417;-65
2022/03/06 06:59:17;;;;;;;6.47;3.53;;;;;;;5.27;39.61;100207.53;4318679;33;33467;-65
2022/03/06 07:01:45;;;;;;;7.25;3.95;;;;;;;5.02;40.80;100209.09;4318668;33;34190;-75
2022/03/06 07:04:13;;;;;;;9.88;4.82;;;;;;;4.59;40.94;100209.31;4318092;33;33823;-73
2022/03/06 07:06:40;;;;;;;7.32;4.12;;;;;;;4.58;41.91;100213.03;4318090;33;33499;-66
2022/03/06 07:09:08;;;;;;;8.48;4.05;;;;;;;5.41;40.40;100215.66;4318227;33;34806;-72
2022/03/06 07:11:35;;;;;;;6.00;3.60;;;;;;;5.44;39.74;100209.84;4317593;33;33824;-64
2022/03/06 07:14:03;;;;;;;6.00;3.80;;;;;;;5.32;39.47;100215.81;4318123;33;34657;-65
2022/03/06 07:16:31;;;;;;;5.22;2.87;;;;;;;5.33;39.57;100219.34;4305097;33;34417;-66
2022/03/06 07:19:00;;;;;;;7.00;3.87;;;;;;;5.59;38.69;100215.88;4317985;33;34756;-74
2022/03/06 07:21:29;;;;;;;6.30;3.58;;;;;;;5.35;39.30;100222.66;4317089;33;34217;-73
2022/03/06 07:23:57;;;;;;;6.45;3.40;;;;;;;5.59;38.54;100223.13;4317541;33;33718;-76
2022/03/06 07:26:24;;;;;;;0.62;0.62;;;;;;;5.73;39.57;100217.56;4317138;33;33915;-66
2022/03/06 07:28:57;;;;;;;7.15;4.12;;;;;;;6.01;38.35;100208.50;4317334;33;33960;-64
2022/03/06 07:31:25;;;;;;;6.62;3.78;;;;;;;5.87;37.70;100213.00;4331704;33;34081;-64
2022/03/06 07:33:52;;;;;;;5.95;3.72;;;;;;;4.96;39.86;100208.03;4332572;33;34668;-66
2022/03/06 07:36:20;;;;;;;6.43;3.72;;;;;;;5.38;38.93;100210.66;4332814;33;33585;-69
2022/03/06 07:38:47;;;;;;;6.12;3.80;;;;;;;5.68;38.50;100214.66;4332252;33;34215;-65
2022/03/06 07:41:17;;;;;;;6.87;3.60;;;;;;;5.99;38.16;100215.12;4332515;33;35255;-67
2022/03/06 07:43:44;;;;;;;7.93;4.40;;;;;;;6.42;37.32;100206.59;4332662;33;33990;-73
2022/03/06 07:46:12;;;;;;;7.12;3.90;;;;;;;6.75;36.44;100211.88;4333173;33;33226;-74
2022/03/06 07:48:39;;;;;;;7.60;4.10;;;;;;;6.44;36.48;100213.44;4333625;33;33928;-73
2022/03/06 07:51:07;;;;;;;1.23;0.80;;;;;;;5.52;39.35;100202.41;4329466;33;34308;-73
2022/03/06 07:53:34;;;;;;;6.18;3.20;;;;;;;5.87;37.20;100202.22;4327091;33;34645;-73
2022/03/06 07:56:02;;;;;;;8.05;3.40;;;;;;;5.98;37.16;100202.69;4319025;33;33586;-74
2022/03/06 07:58:29;;;;;;;7.32;4.00;;;;;;;6.29;36.83;100200.19;4318825;33;34012;-72
2022/03/06 08:00:57;;;;;;;7.45;4.30;;;;;;;6.66;36.27;100200.50;4316568;33;34348;-66
2022/03/06 08:03:24;;;;;;;7.72;4.10;;;;;;;6.62;35.82;100201.16;4318758;33;34764;-65
2022/03/06 08:05:52;;;;;;;6.65;3.90;;;;;;;6.24;36.42;100200.00;4318789;33;34203;-66
2022/03/06 08:08:19;;;;;;;7.22;3.92;;;;;;;6.89;35.23;100202.72;4318439;33;34535;-66
2022/03/06 08:10:47;;;;;;;8.02;4.43;;;;;;;6.65;36.99;100209.66;4304612;33;34785;-69
2022/03/06 08:13:15;;;;;;;6.53;3.92;;;;;;;6.68;36.12;100209.22;4317507;33;34535;-67
2022/03/06 08:15:42;;;;;;;7.03;4.18;;;;;;;6.78;35.83;100200.66;4318336;33;33562;-74
2022/03/06 08:18:10;;;;;;;5.97;3.78;;;;;;;5.81;36.78;100202.22;4316431;33;33936;-71
2022/03/06 08:20:37;;;;;;;7.93;3.65;;;;;;;5.17;38.26;100200.88;4317759;33;34300;-72
2022/03/06 08:23:05;;;;;;;5.90;3.15;;;;;;;5.42;38.27;100188.53;4317354;33;34487;-72
2022/03/06 08:25:32;;;;;;;6.25;3.50;;;;;;;5.19;38.59;100194.28;4317140;33;33463;-73
2022/03/06 08:28:00;;;;;;;7.20;4.10;;;;;;;5.43;38.38;100195.56;4317656;33;34591;-72
2022/03/06 08:30:27;;;;;;;5.68;3.45;;;;;;;5.94;37.15;100184.25;4315600;33;35127;-71
2022/03/06 08:32:55;;;;;;;5.85;3.67;;;;;;;5.31;38.31;100178.34;4316684;33;34082;-72
2022/03/06 08:35:22;;;;;;;5.82;3.67;;;;;;;6.09;36.64;100188.56;4316801;33;33505;-71
2022/03/06 08:37:50;;;;;;;5.85;3.45;;;;;;;6.16;36.48;100181.34;4314751;33;80172;-73
2022/03/06 08:40:17;;;;;;;6.80;3.30;;;;;;;5.85;36.66;100173.84;4317567;33;33838;-73
2022/03/06 08:42:45;;;;;;;7.87;4.12;;;;;;;5.84;36.90;100169.53;4317513;33;33536;-76
2022/03/06 08:45:13;;;;;;;5.70;3.60;;;;;;;5.97;36.54;100176.81;4304014;33;34286;-72
2022/03/06 08:47:40;;;;;;;5.62;3.20;;;;;;;6.26;36.37;100179.03;4317197;33;33546;-76
2022/03/06 08:50:08;;;;;;;5.15;3.15;;;;;;;6.25;35.75;100176.56;4317440;33;35205;-75
2022/03/06 08:52:35;;;;;;;6.70;3.40;;;;;;;6.24;36.43;100181.12;4316179;33;33993;-70
2022/03/06 08:55:04;;;;;;;6.07;3.15;;;;;;;6.34;36.02;100176.09;4317559;33;34329;-70
2022/03/06 08:57:31;;;;;;;4.50;3.17;;;;;;;6.41;35.35;100172.56;4317578;33;33956;-70
2022/03/06 08:59:59;;;;;;;0.82;0.45;;;;;;;6.45;34.97;100173.81;4317197;33;35103;-72
2022/03/06 09:02:26;;;;;;;4.32;2.85;;;;;;;5.65;36.45;100179.25;4316978;33;33634;-72
2022/03/06 09:04:54;;;;;;;5.53;3.10;;;;;;;6.21;35.59;100178.84;4317342;33;34190;-73
2022/03/06 09:07:22;;;;;;;7.18;3.85;;;;;;;6.55;34.33;100183.13;4328123;33;34658;-67
2022/03/06 09:09:49;;;;;;;6.85;3.97;;;;;;;5.75;35.45;100169.72;4332099;33;34205;-67
2022/03/06 09:12:34;;;;;;;6.10;4.00;;;;;;;5.85;36.12;100177.41;4331452;33;34771;-66
2022/03/06 09:15:02;;;;;;;5.53;3.55;;;;;;;6.04;35.03;100174.91;4331590;33;33627;-67
2022/03/06 09:17:29;;;;;;;6.22;3.97;;;;;;;6.53;34.77;100181.69;4331550;33;33426;-68
2022/03/06 09:19:57;;;;;;;7.62;4.37;;;;;;;6.56;34.25;100176.66;4331855;33;34002;-68
2022/03/06 09:22:24;;;;;;;7.30;4.35;;;;;;;6.60;34.92;100181.66;4331787;33;34011;-68
2022/03/06 09:24:52;;;;;;;7.72;4.32;;;;;;;6.61;34.65;100172.50;4331963;33;33338;-67
2022/03/06 09:27:19;;;;;;;7.85;4.53;;;;;;;6.55;34.07;100171.50;4331782;33;34749;-67
2022/03/06 09:29:47;;;;;;;9.10;4.45;;;;;;;6.23;35.42;100174.06;4331726;33;34303;-67
2022/03/06 09:32:14;;;;;;;8.02;5.18;;;;;;;6.13;34.97;100170.97;4331178;33;33983;-66
2022/03/06 09:34:43;;;;;;;9.88;5.05;;;;;;;6.23;34.84;100165.16;4329937;33;33025;-66
2022/03/06 09:37:10;;;;;;;7.82;4.62;;;;;;;6.96;34.06;100162.22;4318372;33;34656;-67
2022/03/06 09:39:38;;;;;;;9.77;5.28;;;;;;;7.18;33.99;100166.25;4315819;33;34820;-69
2022/03/06 09:42:05;;;;;;;8.45;5.05;;;;;;;7.28;33.37;100173.88;4316965;33;34824;-71
2022/03/06 09:44:36;;;;;;;8.35;5.25;;;;;;;7.03;34.73;100165.72;4316657;33;34410;-66
2022/03/06 09:47:05;;;;;;;8.90;4.57;;;;;;;7.01;34.23;100166.97;4317004;33;34681;-70
2022/03/06 09:49:33;;;;;;;6.97;4.30;;;;;;;7.02;33.83;100155.13;4316825;33;35057;-68
2022/03/06 09:52:01;;;;;;;8.05;4.72;;;;;;;7.13;34.22;100158.00;4316954;33;34688;-70
2022/03/06 09:54:30;;;;;;;7.12;4.20;;;;;;;6.70;33.86;100150.50;4303678;33;33857;-75
2022/03/06 09:56:57;;;;;;;8.65;4.97;;;;;;;6.65;34.32;100149.47;4316830;33;34806;-74
2022/03/06 09:59:25;;;;;;;8.73;5.37;;;;;;;6.27;35.29;100156.44;4316371;33;34174;-71
2022/03/06 10:01:52;;;;;;;6.85;4.25;;;;;;;6.54;35.12;100154.53;4316786;33;33937;-71
2022/03/06 10:04:29;;;;;;;7.72;4.68;;;;;;;6.67;34.83;100148.22;4305387;33;33701;-71
2022/03/06 10:06:58;;;;;;;7.75;4.65;;;;;;;6.92;34.28;100155.59;4318867;33;34018;-69
2022/03/06 10:09:26;;;;;;;7.62;4.68;;;;;;;6.71;34.73;100154.03;4305003;33;34085;-70
2022/03/06 10:11:54;;;;;;;9.18;4.72;;;;;;;6.53;35.14;100144.75;4305205;33;33882;-65
2022/03/06 10:14:41;;;;;;;7.93;4.72;;;;;;;6.52;35.47;100148.50;4318219;33;33223;-71
2022/03/06 10:17:13;;;;;;;7.78;4.15;;;;;;;6.99;35.33;100149.13;4325612;33;34869;-65
2022/03/06 10:19:52;;;;;;;7.72;4.70;;;;;;;7.49;33.56;100151.09;4333092;33;34186;-68
2022/03/06 10:22:21;;;;;;;9.13;5.35;;;;;;;7.31;34.40;100148.34;4332867;33;33976;-70
2022/03/06 10:24:50;;;;;;;8.18;4.43;;;;;;;7.55;33.44;100146.72;4332920;33;34335;-68
2022/03/06 10:27:46;;;;;;;9.35;5.20;;;;;;;7.58;32.77;100148.97;4333685;33;34946;-66
2022/03/06 10:30:33;;;;;;;8.52;4.70;;;;;;;7.16;33.62;100130.56;4334210;33;35024;-66
2022/03/06 10:33:03;;;;;;;8.10;4.53;;;;;;;7.06;33.79;100140.16;4334419;33;33952;-65
2022/03/06 10:35:36;;;;;;;8.73;5.07;;;;;;;6.78;34.74;100139.50;4334244;33;33568;-66
2022/03/06 10:38:26;;;;;;;7.95;5.00;;;;;;;7.41;33.30;100127.09;4334484;33;33665;-65
2022/03/06 10:41:17;;;;;;;8.35;4.78;;;;;;;7.29;33.85;100126.13;4334231;33;34349;-66
2022/03/06 10:43:44;;;;;;;9.32;4.85;;;;;;;7.44;35.03;100118.53;4334101;33;34074;-66
2022/03/06 10:46:16;;;;;;;8.05;4.90;;;;;;;8.68;31.98;100118.56;4333860;33;34257;-66
2022/03/06 10:48:58;;;;;;;8.02;4.72;;;;;;;8.20;31.84;100111.22;4334105;33;34176;-66
2022/03/06 10:51:26;;;;;;;8.02;4.82;;;;;;;7.93;31.89;100100.69;4320845;33;34344;-66
2022/03/06 10:53:58;;;;;;;7.55;4.60;;;;;;;7.53;33.17;100111.81;4321964;33;34400;-70
2022/03/06 10:56:26;;;;;;;9.10;4.55;;;;;;;8.11;32.07;100107.16;4319304;33;33707;-70
2022/03/06 10:58:56;;;;;;;8.07;5.22;;;;;;;8.40;31.24;100102.88;4319822;33;33494;-72
2022/03/06 11:01:29;;;;;;;8.70;5.15;;;;;;;8.74;30.96;100092.50;4319749;33;35070;-69
2022/03/06 11:04:01;;;;;;;7.25;4.43;;;;;;;8.88;30.63;100102.13;4319665;33;33934;-68
2022/03/06 11:06:33;;;;;;;8.60;5.15;;;;;;;9.02;30.53;100089.22;4319619;33;33278;-68
2022/03/06 11:09:00;;;;;;;7.65;4.72;;;;;;;8.54;31.22;100081.94;4306328;33;34862;-68
2022/03/06 11:11:28;;;;;;;9.57;5.15;;;;;;;9.59;30.57;100075.19;4306297;33;35006;-71
2022/03/06 11:13:56;;;;;;;8.38;5.00;;;;;;;9.49;29.94;100061.44;4305833;33;34680;-69
2022/03/06 11:16:23;;;;;;;9.70;5.05;;;;;;;9.40;29.95;100064.47;4306503;33;33628;-68
2022/03/06 11:18:52;;;;;;;7.85;4.82;;;;;;;8.71;31.08;100055.94;4319120;33;34012;-68
2022/03/06 11:21:20;;;;;;;9.00;5.10;;;;;;;8.66;31.00;100058.50;4319455;33;33911;-68
2022/03/06 11:23:50;;;;;;;8.98;5.57;;;;;;;8.24;31.92;100052.94;4306439;33;33709;-71
2022/03/06 11:26:18;;;;;;;9.35;5.55;;;;;;;9.39;30.46;100051.97;4313984;33;33432;-72
2022/03/06 11:29:23;;;;;;;9.57;5.10;;;;;;;9.03;31.11;100052.97;4333569;33;33937;-68
2022/03/06 11:31:52;;;;;;;8.02;5.15;;;;;;;8.79;31.03;100044.78;4333977;33;33968;-67
2022/03/06 11:34:29;;;;;;;8.82;5.35;;;;;;;9.01;30.75;100039.69;4333823;33;33920;-67
2022/03/06 11:36:57;;;;;;;9.20;5.20;;;;;;;9.16;30.71;100051.97;4333472;33;33397;-68
2022/03/06 11:39:31;;;;;;;8.02;5.00;;;;;;;8.54;31.51;100044.91;4333493;33;34633;-72